KCIU/CIU METAR and TAF weather

Enter ICAO airport designator
Station Type Date Time Source
KCIU METAR 2020/07/02 17:56 UTC NOAA

KCIU 021756Z AUTO 33009G16KT 10SM CLR 31/19 A3001 RMK AO2 SLP155 T03060194 10311 20189 55005


Station Type Date Time Source
KCIU Decoded METAR 2020/07/02 17:56 UTC NOAA

Sault Ste Marie, Chippewa County International Airport, MI, United States (KCIU) 46-15N 084-28W
Jul 02, 2020 - 01:56 PM EDT / 2020.07.02 1756 UTC
Wind: from the NNW (330 degrees) at 10 MPH (9 KT) gusting to 18 MPH (16 KT):0
Visibility: 10 mile(s):0
Sky conditions: clear
Temperature: 87.1 F (30.6 C)
Dew Point: 66.9 F (19.4 C)
Relative Humidity: 51%
Pressure (altimeter): 30.01 in. Hg (1016 hPa)
Pressure tendency: 0.01 inches (0.5 hPa) lower than three hours ago
ob: KCIU 021756Z AUTO 33009G16KT 10SM CLR 31/19 A3001 RMK AO2 SLP155 T03060194 10311 20189 55005
cycle: 18

Station Type Date Time Source
KCIU TAF UTC NOAA

Error!

Example: see airport list